createdAt,value
2023-05-05T00:00:03.146Z,453.00
2023-05-05T00:01:02.597Z,458.00
2023-05-05T00:02:02.634Z,455.00
2023-05-05T00:03:02.655Z,446.00
2023-05-05T00:04:02.626Z,442.00
2023-05-05T00:05:02.605Z,461.00
2023-05-05T00:06:02.630Z,456.00
2023-05-05T00:07:02.611Z,453.00
2023-05-05T00:08:02.611Z,454.00
2023-05-05T00:09:02.606Z,449.00
2023-05-05T00:10:02.623Z,458.00
2023-05-05T00:11:02.626Z,457.00
2023-05-05T00:12:02.615Z,453.00
2023-05-05T00:13:02.657Z,455.00
2023-05-05T00:14:02.618Z,454.00
2023-05-05T00:15:02.597Z,457.00
2023-05-05T00:16:02.601Z,457.00
2023-05-05T00:17:02.610Z,457.00
2023-05-05T00:18:02.649Z,459.00
2023-05-05T00:19:02.636Z,453.00
2023-05-05T00:20:02.590Z,456.00
2023-05-05T00:21:02.595Z,457.00
2023-05-05T00:22:02.583Z,453.00
2023-05-05T00:23:02.588Z,459.00
2023-05-05T00:24:02.589Z,461.00
2023-05-05T00:25:02.585Z,464.00
2023-05-05T00:26:02.625Z,458.00
2023-05-05T00:27:02.633Z,456.00
2023-05-05T00:28:02.664Z,460.00
2023-05-05T00:29:02.708Z,455.00
2023-05-05T00:30:02.732Z,463.00
2023-05-05T00:31:02.768Z,458.00
2023-05-05T00:32:02.787Z,461.00
2023-05-05T00:33:02.977Z,458.00
2023-05-05T00:34:02.793Z,458.00
2023-05-05T00:35:02.780Z,455.00
2023-05-05T00:36:02.778Z,455.00
2023-05-05T00:37:02.762Z,455.00
2023-05-05T00:38:02.806Z,453.00
2023-05-05T00:39:02.772Z,453.00
2023-05-05T00:40:02.778Z,452.00
2023-05-05T00:41:02.793Z,453.00
2023-05-05T00:42:02.821Z,454.00
2023-05-05T00:43:02.932Z,445.00
2023-05-05T00:44:02.985Z,444.00
2023-05-05T00:45:02.939Z,453.00
2023-05-05T00:46:03.047Z,446.00
2023-05-05T00:47:03.004Z,463.00
2023-05-05T00:48:03.074Z,458.00
2023-05-05T00:49:03.122Z,457.00
2023-05-05T00:50:03.109Z,459.00
2023-05-05T00:51:03.138Z,453.00
2023-05-05T00:52:03.153Z,444.00
2023-05-05T00:53:03.193Z,449.00
2023-05-05T00:54:03.215Z,451.00
2023-05-05T00:55:03.274Z,453.00
2023-05-05T00:56:03.300Z,451.00
2023-05-05T00:57:03.329Z,455.00
2023-05-05T00:58:03.364Z,445.00
2023-05-05T00:59:03.402Z,452.00
2023-05-05T01:00:03.450Z,452.00
2023-05-05T01:01:03.494Z,465.00
2023-05-05T01:02:03.574Z,457.00
2023-05-05T01:03:03.739Z,457.00
2023-05-05T01:04:03.778Z,453.00
2023-05-05T01:05:03.727Z,453.00
2023-05-05T01:06:03.788Z,455.00
2023-05-05T01:07:03.884Z,445.00
2023-05-05T01:08:03.903Z,454.00
2023-05-05T01:09:03.955Z,455.00
2023-05-05T01:10:18.216Z,451.00
2023-05-05T01:11:04.969Z,451.00
2023-05-05T01:12:03.943Z,463.00
2023-05-05T01:13:04.030Z,455.00
2023-05-05T01:14:03.925Z,452.00
2023-05-05T01:15:03.919Z,457.00
2023-05-05T01:16:03.927Z,452.00
2023-05-05T01:17:03.893Z,451.00
2023-05-05T01:18:03.944Z,450.00
2023-05-05T01:19:03.882Z,451.00
2023-05-05T01:20:03.871Z,449.00
2023-05-05T01:21:03.833Z,442.00
2023-05-05T01:22:03.833Z,460.00
2023-05-05T01:23:03.825Z,467.00
2023-05-05T01:24:03.812Z,460.00
2023-05-05T01:25:03.816Z,451.00
2023-05-05T01:26:03.858Z,456.00
2023-05-05T01:27:03.891Z,447.00
2023-05-05T01:28:03.944Z,452.00
2023-05-05T01:29:04.017Z,453.00
2023-05-05T01:30:04.056Z,454.00
2023-05-05T01:31:04.075Z,456.00
2023-05-05T01:32:04.178Z,444.00
2023-05-05T01:33:04.147Z,465.00
2023-05-05T01:34:04.180Z,463.00
2023-05-05T01:35:04.224Z,465.00
2023-05-05T01:36:04.214Z,463.00
2023-05-05T01:37:04.224Z,461.00
2023-05-05T01:38:04.249Z,457.00
2023-05-05T01:39:04.270Z,456.00
2023-05-05T01:40:04.359Z,450.00
2023-05-05T01:41:04.310Z,456.00
2023-05-05T01:42:04.339Z,457.00
2023-05-05T01:43:04.382Z,458.00
2023-05-05T01:44:04.405Z,455.00
2023-05-05T01:45:04.436Z,459.00
2023-05-05T01:46:04.516Z,456.00
2023-05-05T01:47:04.515Z,458.00
2023-05-05T01:48:04.593Z,455.00
2023-05-05T01:49:04.599Z,460.00
2023-05-05T01:50:04.645Z,457.00
2023-05-05T01:51:04.664Z,467.00
2023-05-05T01:52:04.691Z,451.00
2023-05-05T01:53:04.730Z,466.00
2023-05-05T01:54:04.765Z,464.00
2023-05-05T01:55:04.809Z,465.00
2023-05-05T01:56:04.872Z,469.00
2023-05-05T01:57:04.935Z,468.00
2023-05-05T01:58:05.022Z,457.00
2023-05-05T01:59:05.052Z,463.00
2023-05-05T02:00:05.148Z,465.00
2023-05-05T02:01:05.166Z,458.00
2023-05-05T02:02:05.254Z,459.00
2023-05-05T02:03:05.305Z,459.00
2023-05-05T02:04:05.322Z,457.00
2023-05-05T02:05:05.374Z,458.00
2023-05-05T02:06:05.433Z,453.00
2023-05-05T02:07:05.476Z,450.00
2023-05-05T02:08:05.526Z,451.00
2023-05-05T02:09:05.558Z,451.00
2023-05-05T02:10:05.686Z,448.00
2023-05-05T02:11:05.620Z,425.00
2023-05-05T02:12:05.665Z,444.00
2023-05-05T02:13:05.790Z,454.00
2023-05-05T02:14:05.710Z,453.00
2023-05-05T02:15:05.751Z,457.00
2023-05-05T02:16:05.822Z,458.00
2023-05-05T02:17:05.768Z,458.00
2023-05-05T02:18:05.868Z,455.00
2023-05-05T02:19:05.822Z,452.00
2023-05-05T02:20:05.933Z,452.00
2023-05-05T02:21:05.882Z,455.00
2023-05-05T02:22:05.907Z,451.00
2023-05-05T02:23:05.983Z,452.00
2023-05-05T02:24:06.020Z,450.00
2023-05-05T02:25:05.992Z,451.00
2023-05-05T02:26:06.046Z,450.00
2023-05-05T02:27:06.067Z,442.00
2023-05-05T02:28:06.084Z,443.00
2023-05-05T02:29:06.126Z,439.00
2023-05-05T02:30:06.418Z,449.00
2023-05-05T02:31:06.237Z,443.00
2023-05-05T02:32:06.246Z,446.00
2023-05-05T02:33:06.369Z,443.00
2023-05-05T02:34:06.319Z,441.00
2023-05-05T02:35:06.367Z,442.00
2023-05-05T02:36:06.398Z,444.00
2023-05-05T02:37:06.448Z,445.00
2023-05-05T02:38:06.464Z,447.00
2023-05-05T02:39:06.517Z,447.00
2023-05-05T02:40:06.799Z,448.00
2023-05-05T02:41:06.552Z,448.00
2023-05-05T02:42:06.620Z,447.00
2023-05-05T02:43:06.780Z,451.00
2023-05-05T02:44:06.724Z,448.00
2023-05-05T02:45:06.871Z,447.00
2023-05-05T02:46:06.839Z,445.00
2023-05-05T02:47:07.697Z,442.00
2023-05-05T02:48:06.941Z,451.00
2023-05-05T02:49:06.931Z,448.00
2023-05-05T02:50:07.178Z,449.00
2023-05-05T02:51:06.994Z,440.00
2023-05-05T02:52:07.015Z,446.00
2023-05-05T02:53:07.046Z,447.00
2023-05-05T02:54:07.049Z,445.00
2023-05-05T02:55:07.085Z,447.00
2023-05-05T02:56:07.101Z,441.00
2023-05-05T02:57:07.131Z,443.00
2023-05-05T02:58:07.165Z,443.00
2023-05-05T02:59:07.184Z,448.00
2023-05-05T03:00:07.329Z,447.00
2023-05-05T03:01:07.323Z,447.00
2023-05-05T03:02:07.288Z,447.00
2023-05-05T03:03:07.393Z,445.00
2023-05-05T03:04:07.397Z,450.00
2023-05-05T03:05:07.450Z,445.00
2023-05-05T03:06:07.494Z,447.00
2023-05-05T03:07:07.525Z,450.00
2023-05-05T03:08:07.566Z,451.00
2023-05-05T03:09:07.585Z,452.00
2023-05-05T03:10:08.024Z,452.00
2023-05-05T03:11:07.698Z,453.00
2023-05-05T03:12:07.733Z,451.00
2023-05-05T03:13:07.910Z,448.00
2023-05-05T03:14:07.823Z,459.00
2023-05-05T03:15:07.879Z,458.00
2023-05-05T03:16:07.924Z,451.00
2023-05-05T03:17:07.964Z,450.00
2023-05-05T03:18:08.023Z,453.00
2023-05-05T03:19:08.079Z,423.00
2023-05-05T03:20:08.329Z,480.00
2023-05-05T03:21:08.238Z,456.00
2023-05-05T03:22:08.302Z,463.00
2023-05-05T03:23:08.379Z,448.00
2023-05-05T03:24:08.448Z,457.00
2023-05-05T03:25:08.531Z,462.00
2023-05-05T03:26:08.587Z,462.00
2023-05-05T03:27:08.657Z,464.00
2023-05-05T03:28:08.696Z,464.00
2023-05-05T03:29:08.756Z,460.00
2023-05-05T03:30:08.990Z,466.00
2023-05-05T03:31:08.890Z,468.00
2023-05-05T03:32:08.998Z,468.00
2023-05-05T03:33:09.188Z,462.00
2023-05-05T03:34:09.106Z,450.00
2023-05-05T03:35:09.162Z,455.00
2023-05-05T03:36:09.231Z,459.00
2023-05-05T03:37:09.309Z,456.00
2023-05-05T03:38:09.355Z,454.00
2023-05-05T03:39:09.491Z,455.00
2023-05-05T03:40:09.631Z,458.00
2023-05-05T03:41:09.547Z,459.00
2023-05-05T03:42:09.608Z,457.00
2023-05-05T03:43:09.676Z,457.00
2023-05-05T03:44:09.724Z,458.00
2023-05-05T03:45:09.788Z,461.00
2023-05-05T03:46:09.946Z,449.00
2023-05-05T03:47:09.912Z,455.00
2023-05-05T03:48:10.031Z,453.00
2023-05-05T03:49:10.042Z,463.00
2023-05-05T03:50:10.200Z,466.00
2023-05-05T03:51:10.097Z,460.00
2023-05-05T03:52:10.137Z,456.00
2023-05-05T03:53:10.188Z,455.00
2023-05-05T03:54:10.258Z,457.00
2023-05-05T03:55:10.326Z,458.00
2023-05-05T03:56:10.393Z,458.00
2023-05-05T03:57:10.452Z,459.00
2023-05-05T03:58:10.508Z,459.00
2023-05-05T03:59:10.617Z,456.00
2023-05-05T04:00:10.616Z,469.00
2023-05-05T04:01:10.666Z,459.00
2023-05-05T04:02:10.752Z,456.00
2023-05-05T04:03:11.053Z,462.00
2023-05-05T04:04:10.913Z,459.00
2023-05-05T04:05:10.907Z,464.00
2023-05-05T04:06:10.986Z,463.00
2023-05-05T04:07:11.035Z,458.00
2023-05-05T04:08:11.113Z,457.00
2023-05-05T04:09:11.174Z,458.00
2023-05-05T04:10:11.231Z,458.00
2023-05-05T04:11:11.303Z,462.00
2023-05-05T04:12:11.347Z,460.00
2023-05-05T04:13:11.473Z,460.00
2023-05-05T04:14:11.453Z,461.00
2023-05-05T04:15:11.524Z,458.00
2023-05-05T04:16:11.589Z,463.00
2023-05-05T04:17:11.632Z,477.00
2023-05-05T04:18:11.703Z,469.00
2023-05-05T04:19:11.762Z,463.00
2023-05-05T04:20:11.855Z,462.00
2023-05-05T04:21:11.908Z,461.00
2023-05-05T04:22:11.967Z,455.00
2023-05-05T04:23:12.048Z,460.00
2023-05-05T04:24:12.112Z,458.00
2023-05-05T04:25:12.182Z,453.00
2023-05-05T04:26:12.261Z,458.00
2023-05-05T04:27:12.336Z,437.00
2023-05-05T04:28:12.431Z,469.00
2023-05-05T04:29:12.479Z,468.00
2023-05-05T04:30:12.544Z,462.00
2023-05-05T04:31:12.645Z,456.00
2023-05-05T04:32:12.680Z,454.00
2023-05-05T04:33:12.738Z,458.00
2023-05-05T04:34:12.780Z,455.00
2023-05-05T04:35:12.875Z,464.00
2023-05-05T04:36:12.919Z,465.00
2023-05-05T04:37:12.988Z,456.00
2023-05-05T04:38:13.062Z,452.00
2023-05-05T04:39:13.100Z,443.00
2023-05-05T04:40:13.111Z,454.00
2023-05-05T04:41:13.132Z,448.00
2023-05-05T04:42:13.152Z,458.00
2023-05-05T04:43:13.175Z,464.00
2023-05-05T04:44:13.245Z,460.00
2023-05-05T04:45:13.317Z,458.00
2023-05-05T04:46:13.371Z,472.00
2023-05-05T04:47:14.763Z,460.00
2023-05-05T04:48:13.504Z,458.00
2023-05-05T04:49:13.560Z,456.00
2023-05-05T04:50:13.631Z,455.00
2023-05-05T04:51:13.686Z,454.00
2023-05-05T04:52:13.740Z,451.00
2023-05-05T04:53:13.807Z,445.00
2023-05-05T04:54:13.853Z,439.00
2023-05-05T04:55:14.724Z,443.00
2023-05-05T04:56:13.978Z,448.00
2023-05-05T04:57:14.045Z,455.00
2023-05-05T04:58:14.110Z,449.00
2023-05-05T04:59:14.170Z,449.00
2023-05-05T05:00:14.218Z,450.00
2023-05-05T05:01:14.261Z,449.00
2023-05-05T05:02:14.386Z,453.00
2023-05-05T05:03:14.454Z,458.00
2023-05-05T05:04:14.417Z,462.00
2023-05-05T05:05:14.490Z,464.00
2023-05-05T05:06:14.557Z,472.00
2023-05-05T05:07:14.599Z,469.00
2023-05-05T05:08:14.662Z,467.00
2023-05-05T05:09:14.739Z,472.00
2023-05-05T05:10:14.816Z,477.00
2023-05-05T05:11:14.904Z,479.00
2023-05-05T05:12:14.983Z,490.00
2023-05-05T05:13:15.120Z,461.00
2023-05-05T05:14:15.176Z,500.00
2023-05-05T05:15:15.229Z,475.00
2023-05-05T05:16:15.373Z,467.00
2023-05-05T05:17:15.363Z,473.00
2023-05-05T05:18:15.420Z,466.00
2023-05-05T05:19:15.521Z,470.00
2023-05-05T05:20:15.582Z,461.00
2023-05-05T05:21:15.673Z,458.00
2023-05-05T05:22:15.712Z,461.00
2023-05-05T05:23:15.752Z,458.00
2023-05-05T05:24:15.782Z,459.00
2023-05-05T05:25:15.833Z,454.00
2023-05-05T05:26:15.837Z,454.00
2023-05-05T05:27:15.863Z,446.00
2023-05-05T05:28:15.879Z,456.00
2023-05-05T05:29:15.928Z,453.00
2023-05-05T05:30:15.999Z,456.00
2023-05-05T05:31:16.048Z,453.00
2023-05-05T05:32:16.162Z,456.00
2023-05-05T05:33:16.149Z,453.00
2023-05-05T05:34:16.212Z,453.00
2023-05-05T05:35:17.160Z,451.00
2023-05-05T05:36:16.802Z,451.00
2023-05-05T05:37:16.430Z,446.00
2023-05-05T05:38:16.530Z,451.00
2023-05-05T05:39:16.498Z,441.00
2023-05-05T05:40:16.540Z,449.00
2023-05-05T05:41:16.568Z,448.00
2023-05-05T05:42:16.653Z,455.00
2023-05-05T05:43:16.701Z,465.00
2023-05-05T05:44:16.767Z,442.00
2023-05-05T05:45:16.820Z,453.00
2023-05-05T05:46:16.883Z,452.00
2023-05-05T05:47:16.957Z,443.00
2023-05-05T05:48:16.979Z,444.00
2023-05-05T05:49:17.035Z,450.00
2023-05-05T05:50:17.094Z,438.00
2023-05-05T05:51:17.164Z,467.00
2023-05-05T05:52:17.221Z,458.00
2023-05-05T05:53:17.291Z,450.00
2023-05-05T05:54:17.327Z,448.00
2023-05-05T05:55:17.392Z,448.00
2023-05-05T05:56:17.442Z,454.00
2023-05-05T05:57:17.514Z,450.00
2023-05-05T05:58:17.567Z,440.00
2023-05-05T05:59:17.611Z,450.00
2023-05-05T06:00:17.642Z,448.00
2023-05-05T06:01:17.671Z,438.00
2023-05-05T06:02:17.720Z,449.00
2023-05-05T06:03:17.851Z,447.00
2023-05-05T06:04:17.726Z,448.00
2023-05-05T06:05:17.743Z,448.00
2023-05-05T06:06:17.794Z,451.00
2023-05-05T06:07:17.829Z,449.00
2023-05-05T06:08:17.889Z,450.00
2023-05-05T06:09:17.903Z,448.00
2023-05-05T06:10:27.257Z,445.00
2023-05-05T06:11:18.949Z,442.00
2023-05-05T06:12:18.765Z,454.00
2023-05-05T06:13:18.776Z,441.00
2023-05-05T06:14:18.251Z,449.00
2023-05-05T06:15:17.903Z,448.00
2023-05-05T06:16:17.917Z,456.00
2023-05-05T06:17:17.886Z,452.00
2023-05-05T06:18:18.018Z,441.00
2023-05-05T06:19:17.903Z,445.00
2023-05-05T06:20:17.893Z,440.00
2023-05-05T06:21:17.859Z,445.00
2023-05-05T06:22:17.863Z,437.00
2023-05-05T06:23:17.935Z,437.00
2023-05-05T06:24:18.009Z,444.00
2023-05-05T06:25:18.045Z,441.00
2023-05-05T06:26:18.112Z,441.00
2023-05-05T06:27:18.173Z,437.00
2023-05-05T06:28:18.200Z,450.00
2023-05-05T06:29:18.242Z,455.00
2023-05-05T06:30:18.309Z,449.00
2023-05-05T06:31:18.390Z,450.00
2023-05-05T06:32:18.385Z,450.00
2023-05-05T06:33:18.410Z,451.00
2023-05-05T06:34:18.483Z,446.00
2023-05-05T06:35:18.542Z,442.00
2023-05-05T06:36:18.647Z,446.00
2023-05-05T06:37:18.679Z,437.00
2023-05-05T06:38:18.733Z,438.00
2023-05-05T06:39:19.761Z,433.00
2023-05-05T06:40:18.809Z,454.00
2023-05-05T06:41:18.809Z,444.00
2023-05-05T06:42:18.859Z,450.00
2023-05-05T06:43:18.909Z,445.00
2023-05-05T06:44:18.970Z,442.00
2023-05-05T06:45:19.032Z,440.00
2023-05-05T06:46:19.167Z,441.00
2023-05-05T06:47:19.180Z,440.00
2023-05-05T06:48:19.207Z,441.00
2023-05-05T06:49:19.244Z,451.00
2023-05-05T06:50:19.305Z,447.00
2023-05-05T06:51:19.268Z,443.00
2023-05-05T06:52:19.293Z,438.00
2023-05-05T06:53:19.319Z,444.00
2023-05-05T06:54:19.352Z,452.00
2023-05-05T06:55:19.456Z,451.00
2023-05-05T06:56:19.443Z,443.00
2023-05-05T06:57:19.549Z,447.00
2023-05-05T06:58:19.560Z,444.00
2023-05-05T06:59:19.572Z,438.00
2023-05-05T07:00:19.597Z,447.00
2023-05-05T07:01:19.699Z,455.00
2023-05-05T07:02:19.653Z,454.00
2023-05-05T07:03:19.760Z,449.00
2023-05-05T07:04:19.684Z,444.00
2023-05-05T07:05:19.655Z,435.00
2023-05-05T07:06:19.633Z,445.00
2023-05-05T07:07:19.629Z,456.00
2023-05-05T07:08:19.625Z,469.00
2023-05-05T07:09:19.603Z,452.00
2023-05-05T07:10:19.617Z,449.00
2023-05-05T07:11:19.873Z,449.00
2023-05-05T07:12:19.644Z,445.00
2023-05-05T07:13:19.734Z,439.00
2023-05-05T07:14:20.960Z,433.00
2023-05-05T07:15:28.509Z,447.00
2023-05-05T07:16:20.603Z,434.00
2023-05-05T07:17:19.532Z,448.00
2023-05-05T07:18:19.551Z,449.00
2023-05-05T07:19:19.473Z,443.00
2023-05-05T07:20:19.437Z,440.00
2023-05-05T07:21:19.401Z,447.00
2023-05-05T07:22:19.372Z,441.00
2023-05-05T07:23:19.324Z,439.00
2023-05-05T07:24:20.310Z,444.00
2023-05-05T07:25:19.273Z,412.00
2023-05-05T07:26:19.257Z,467.00
2023-05-05T07:27:19.328Z,448.00
2023-05-05T07:28:19.300Z,443.00
2023-05-05T07:29:19.327Z,441.00
2023-05-05T07:30:19.869Z,444.00
2023-05-05T07:31:19.340Z,441.00
2023-05-05T07:32:19.442Z,435.00
2023-05-05T07:33:19.261Z,444.00
2023-05-05T07:34:19.240Z,452.00
2023-05-05T07:35:19.197Z,446.00
2023-05-05T07:36:19.150Z,442.00
2023-05-05T07:37:19.110Z,440.00
2023-05-05T07:38:19.077Z,433.00
2023-05-05T07:39:19.017Z,435.00
2023-05-05T07:40:18.970Z,437.00
2023-05-05T07:41:18.981Z,447.00
2023-05-05T07:42:18.945Z,450.00
2023-05-05T07:43:19.070Z,442.00
2023-05-05T07:44:18.907Z,442.00
2023-05-05T07:45:18.899Z,444.00
2023-05-05T07:46:18.923Z,458.00
2023-05-05T07:47:18.920Z,450.00
2023-05-05T07:48:18.887Z,449.00
2023-05-05T07:49:18.866Z,444.00
2023-05-05T07:50:18.836Z,444.00
2023-05-05T07:51:18.816Z,444.00
2023-05-05T07:52:19.469Z,443.00
2023-05-05T07:53:18.716Z,442.00
2023-05-05T07:54:18.633Z,447.00
2023-05-05T07:55:18.546Z,447.00
2023-05-05T07:56:19.336Z,444.00
2023-05-05T07:57:18.615Z,461.00
2023-05-05T07:58:18.566Z,456.00
2023-05-05T07:59:18.665Z,449.00
2023-05-05T08:00:18.457Z,446.00
2023-05-05T08:01:18.542Z,446.00
2023-05-05T08:02:18.685Z,446.00
2023-05-05T08:03:18.812Z,445.00
2023-05-05T08:04:18.851Z,447.00
2023-05-05T08:05:18.920Z,440.00
2023-05-05T08:06:19.027Z,434.00
2023-05-05T08:07:19.149Z,435.00
2023-05-05T08:08:19.241Z,435.00
2023-05-05T08:09:19.366Z,436.00
2023-05-05T08:10:19.414Z,439.00
2023-05-05T08:11:19.512Z,439.00
2023-05-05T08:12:19.603Z,441.00
2023-05-05T08:13:19.781Z,442.00
2023-05-05T08:14:19.836Z,445.00
2023-05-05T08:15:20.039Z,450.00
2023-05-05T08:16:20.883Z,448.00
2023-05-05T08:17:20.038Z,445.00
2023-05-05T08:18:20.008Z,444.00
2023-05-05T08:19:28.906Z,444.00
2023-05-05T08:20:20.843Z,443.00
2023-05-05T08:21:19.737Z,444.00
2023-05-05T08:22:19.628Z,440.00
2023-05-05T08:23:19.552Z,442.00
2023-05-05T08:24:19.436Z,439.00
2023-05-05T08:25:19.334Z,444.00
2023-05-05T08:26:19.221Z,449.00
2023-05-05T08:27:19.136Z,449.00
2023-05-05T08:28:19.158Z,442.00
2023-05-05T08:29:19.272Z,440.00
2023-05-05T08:30:19.374Z,442.00
2023-05-05T08:31:19.570Z,443.00
2023-05-05T08:32:19.547Z,448.00
2023-05-05T08:33:19.668Z,450.00
2023-05-05T08:34:19.735Z,447.00
2023-05-05T08:35:19.837Z,443.00
2023-05-05T08:36:20.022Z,494.00
2023-05-05T08:37:20.030Z,435.00
2023-05-05T08:38:20.314Z,451.00
2023-05-05T08:39:20.221Z,449.00
2023-05-05T08:40:20.315Z,441.00
2023-05-05T08:41:20.258Z,450.00
2023-05-05T08:42:35.577Z,447.00
2023-05-05T08:43:21.084Z,448.00
2023-05-05T08:44:19.973Z,445.00
2023-05-05T08:45:19.884Z,444.00
2023-05-05T08:46:19.790Z,444.00
2023-05-05T08:47:20.346Z,439.00
2023-05-05T08:48:19.585Z,424.00
2023-05-05T08:49:19.483Z,434.00
2023-05-05T08:50:19.375Z,437.00
2023-05-05T08:51:19.422Z,436.00
2023-05-05T08:52:19.515Z,439.00
2023-05-05T08:53:19.602Z,435.00
2023-05-05T08:54:19.690Z,433.00
2023-05-05T08:55:19.783Z,428.00
2023-05-05T08:56:19.883Z,445.00
2023-05-05T08:57:19.987Z,438.00
2023-05-05T08:58:20.094Z,438.00
2023-05-05T08:59:20.205Z,435.00
2023-05-05T09:00:20.324Z,438.00
2023-05-05T09:01:20.436Z,440.00
2023-05-05T09:02:20.533Z,437.00
2023-05-05T09:03:20.782Z,435.00
2023-05-05T09:04:20.761Z,433.00
2023-05-05T09:05:20.865Z,436.00
2023-05-05T09:06:20.989Z,436.00
2023-05-05T09:07:21.067Z,433.00
2023-05-05T09:08:21.177Z,434.00
2023-05-05T09:09:21.298Z,439.00
2023-05-05T09:10:21.553Z,439.00
2023-05-05T09:11:21.558Z,440.00
2023-05-05T09:12:21.676Z,440.00
2023-05-05T09:13:21.809Z,437.00
2023-05-05T09:14:21.900Z,441.00
2023-05-05T09:15:22.026Z,443.00
2023-05-05T09:16:22.162Z,442.00
2023-05-05T09:17:22.263Z,444.00
2023-05-05T09:18:22.354Z,444.00
2023-05-05T09:19:22.543Z,445.00
2023-05-05T09:20:22.550Z,441.00
2023-05-05T09:21:22.673Z,443.00
2023-05-05T09:22:22.725Z,443.00
2023-05-05T09:23:22.828Z,446.00
2023-05-05T09:24:22.893Z,446.00
2023-05-05T09:25:22.982Z,443.00
2023-05-05T09:26:23.175Z,442.00
2023-05-05T09:27:23.737Z,441.00
2023-05-05T09:28:23.129Z,444.00
2023-05-05T09:29:23.001Z,442.00
2023-05-05T09:30:22.844Z,444.00
2023-05-05T09:31:22.857Z,444.00
2023-05-05T09:32:22.726Z,449.00
2023-05-05T09:33:22.507Z,447.00
2023-05-05T09:34:22.418Z,443.00
2023-05-05T09:35:22.333Z,446.00
2023-05-05T09:36:22.256Z,447.00
2023-05-05T09:37:22.153Z,450.00
2023-05-05T09:38:22.056Z,447.00
2023-05-05T09:39:21.952Z,450.00
2023-05-05T09:40:21.980Z,452.00
2023-05-05T09:41:21.711Z,446.00
2023-05-05T09:42:21.579Z,443.00
2023-05-05T09:43:21.485Z,443.00
2023-05-05T09:44:21.372Z,439.00
2023-05-05T09:45:21.269Z,442.00
2023-05-05T09:46:22.863Z,442.00
2023-05-05T09:47:29.627Z,441.00
2023-05-05T09:48:22.049Z,440.00
2023-05-05T09:49:20.737Z,443.00
2023-05-05T09:50:20.730Z,441.00
2023-05-05T09:51:20.531Z,438.00
2023-05-05T09:52:21.245Z,439.00
2023-05-05T09:53:20.195Z,441.00
2023-05-05T09:54:20.037Z,439.00
2023-05-05T09:55:19.893Z,440.00
2023-05-05T09:56:19.771Z,442.00
2023-05-05T09:57:19.618Z,440.00
2023-05-05T09:58:20.055Z,440.00
2023-05-05T09:59:19.414Z,439.00
2023-05-05T10:00:20.293Z,442.00
2023-05-05T10:01:19.389Z,441.00
2023-05-05T10:02:19.182Z,443.00
2023-05-05T10:03:19.099Z,442.00
2023-05-05T10:04:19.020Z,441.00
2023-05-05T10:05:19.914Z,442.00
2023-05-05T10:06:18.828Z,440.00
2023-05-05T10:07:18.795Z,435.00
2023-05-05T10:08:18.649Z,445.00
2023-05-05T10:09:18.528Z,438.00
2023-05-05T10:10:18.530Z,433.00
2023-05-05T10:11:18.316Z,432.00
2023-05-05T10:12:18.203Z,435.00
2023-05-05T10:13:18.773Z,433.00
2023-05-05T10:14:17.971Z,434.00
2023-05-05T10:15:17.842Z,433.00
2023-05-05T10:16:17.798Z,433.00
2023-05-05T10:17:17.617Z,429.00
2023-05-05T10:18:17.517Z,432.00
2023-05-05T10:19:17.385Z,430.00
2023-05-05T10:20:17.315Z,430.00
2023-05-05T10:21:17.209Z,436.00
2023-05-05T10:22:17.118Z,436.00
2023-05-05T10:23:17.067Z,439.00
2023-05-05T10:24:16.878Z,440.00
2023-05-05T10:25:16.765Z,438.00
2023-05-05T10:26:16.638Z,445.00
2023-05-05T10:27:16.567Z,442.00
2023-05-05T10:28:16.730Z,441.00
2023-05-05T10:29:16.829Z,438.00
2023-05-05T10:30:16.950Z,437.00
2023-05-05T10:31:25.714Z,433.00
2023-05-05T10:32:47.290Z,437.00
2023-05-05T10:33:30.373Z,440.00
2023-05-05T10:34:17.832Z,441.00
2023-05-05T10:35:16.513Z,442.00
2023-05-05T10:36:16.329Z,437.00
2023-05-05T10:37:16.177Z,436.00
2023-05-05T10:38:16.021Z,435.00
2023-05-05T10:39:15.904Z,439.00
2023-05-05T10:40:15.716Z,440.00
2023-05-05T10:41:15.522Z,436.00
2023-05-05T10:42:15.368Z,438.00
2023-05-05T10:43:15.213Z,439.00
2023-05-05T10:44:15.040Z,438.00
2023-05-05T10:45:14.910Z,437.00
2023-05-05T10:46:14.783Z,436.00
2023-05-05T10:47:14.643Z,439.00
2023-05-05T10:48:14.842Z,439.00
2023-05-05T10:49:14.843Z,438.00
2023-05-05T10:50:14.883Z,438.00
2023-05-05T10:51:23.938Z,437.00
2023-05-05T10:52:15.850Z,442.00
2023-05-05T10:53:14.676Z,446.00
2023-05-05T10:54:14.536Z,452.00
2023-05-05T10:55:14.481Z,454.00
2023-05-05T10:56:14.228Z,447.00
2023-05-05T10:57:14.064Z,442.00
2023-05-05T10:58:13.901Z,441.00
2023-05-05T10:59:14.308Z,440.00
2023-05-05T11:00:15.057Z,444.00
2023-05-05T11:01:13.410Z,443.00
2023-05-05T11:02:13.332Z,443.00
2023-05-05T11:03:13.113Z,441.00
2023-05-05T11:04:12.875Z,439.00
2023-05-05T11:05:12.680Z,437.00
2023-05-05T11:06:12.511Z,433.00
2023-05-05T11:07:14.971Z,430.00
2023-05-05T11:08:12.160Z,434.00
2023-05-05T11:09:11.997Z,434.00
2023-05-05T11:10:11.946Z,432.00
2023-05-05T11:11:11.704Z,434.00
2023-05-05T11:12:11.462Z,432.00
2023-05-05T11:13:11.291Z,429.00
2023-05-05T11:14:11.106Z,432.00
2023-05-05T11:15:10.942Z,430.00
2023-05-05T11:16:11.003Z,429.00
2023-05-05T11:17:11.037Z,432.00
2023-05-05T11:18:11.222Z,429.00
2023-05-05T11:19:11.287Z,429.00
2023-05-05T11:20:11.334Z,430.00
2023-05-05T11:21:11.489Z,434.00
2023-05-05T11:22:11.600Z,431.00
2023-05-05T11:23:12.597Z,428.00
2023-05-05T11:24:11.600Z,430.00
2023-05-05T11:25:11.431Z,422.00
2023-05-05T11:26:11.281Z,420.00
2023-05-05T11:27:11.357Z,419.00
2023-05-05T11:28:11.071Z,420.00
2023-05-05T11:29:10.900Z,417.00
2023-05-05T11:30:10.987Z,419.00
2023-05-05T11:31:10.567Z,418.00
2023-05-05T11:32:10.378Z,420.00
2023-05-05T11:33:10.214Z,417.00
2023-05-05T11:34:10.025Z,416.00
2023-05-05T11:35:09.846Z,415.00
2023-05-05T11:36:09.673Z,415.00
2023-05-05T11:37:09.585Z,414.00
2023-05-05T11:38:09.364Z,415.00
2023-05-05T11:39:09.201Z,417.00
2023-05-05T11:40:09.178Z,410.00
2023-05-05T11:41:09.139Z,416.00
2023-05-05T11:42:10.687Z,423.00
2023-05-05T11:43:08.789Z,432.00
2023-05-05T11:44:08.504Z,421.00
2023-05-05T11:45:08.386Z,418.00
2023-05-05T11:46:08.330Z,417.00
2023-05-05T11:47:08.124Z,418.00
2023-05-05T11:48:08.204Z,421.00
2023-05-05T11:49:07.842Z,422.00
2023-05-05T11:50:07.858Z,419.00
2023-05-05T11:51:07.535Z,416.00
2023-05-05T11:52:07.397Z,413.00
2023-05-05T11:53:07.259Z,413.00
2023-05-05T11:54:07.108Z,417.00
2023-05-05T11:55:06.981Z,418.00
2023-05-05T11:56:06.790Z,415.00
2023-05-05T11:57:06.639Z,416.00
2023-05-05T11:58:06.461Z,412.00
2023-05-05T11:59:06.405Z,418.00
2023-05-05T12:01:06.545Z,415.00
2023-05-05T12:02:06.502Z,420.00
2023-05-05T12:03:06.838Z,415.00
2023-05-05T12:04:06.829Z,419.00
2023-05-05T12:05:06.872Z,419.00
2023-05-05T12:06:06.955Z,420.00
2023-05-05T12:07:07.044Z,421.00
2023-05-05T12:08:07.138Z,422.00
2023-05-05T12:09:07.326Z,422.00
2023-05-05T12:10:07.603Z,420.00
2023-05-05T12:11:07.200Z,418.00
2023-05-05T12:12:07.052Z,419.00
2023-05-05T12:13:06.960Z,417.00
2023-05-05T12:14:06.859Z,414.00
2023-05-05T12:15:07.027Z,417.00
2023-05-05T12:16:07.080Z,418.00
2023-05-05T12:17:07.108Z,418.00
2023-05-05T12:18:07.225Z,416.00
2023-05-05T12:19:07.281Z,418.00
2023-05-05T12:20:07.596Z,417.00
2023-05-05T12:21:07.169Z,417.00
2023-05-05T12:22:07.004Z,417.00
2023-05-05T12:23:06.846Z,408.00
2023-05-05T12:24:06.673Z,418.00
2023-05-05T12:25:06.714Z,419.00
2023-05-05T12:26:06.746Z,419.00
2023-05-05T12:27:06.831Z,416.00
2023-05-05T12:28:06.998Z,414.00
2023-05-05T12:29:06.964Z,415.00